createdAt,value
2022-11-17T08:16:15.437Z,12.77
2022-11-17T08:18:46.072Z,12.87
2022-11-17T08:21:15.730Z,12.96
2022-11-17T08:23:42.906Z,12.99
2022-11-17T08:26:10.986Z,13.04
2022-11-17T08:28:38.611Z,13.09
2022-11-17T08:31:07.008Z,13.10
2022-11-17T08:33:34.191Z,13.13
2022-11-17T08:36:02.513Z,13.17
2022-11-17T08:38:30.189Z,13.19
2022-11-17T08:41:02.256Z,13.23
2022-11-17T08:43:29.220Z,13.29
2022-11-17T08:45:56.300Z,13.33
2022-11-17T08:48:24.791Z,13.40
2022-11-17T08:50:52.317Z,13.46
2022-11-17T08:53:20.893Z,13.54
2022-11-17T08:55:48.138Z,13.58
2022-11-17T08:58:15.042Z,13.63
2022-11-17T09:00:42.542Z,13.66
2022-11-17T09:03:10.520Z,13.71
2022-11-17T09:05:42.683Z,13.73
2022-11-17T09:08:43.183Z,13.76
2022-11-17T09:10:56.336Z,13.78
2022-11-17T09:13:23.244Z,13.80
2022-11-17T09:15:50.130Z,13.84
2022-11-17T09:18:17.307Z,13.84
2022-11-17T09:20:45.840Z,13.84
2022-11-17T09:23:13.123Z,13.84
2022-11-17T09:25:40.157Z,13.85
2022-11-17T09:28:07.070Z,13.84
2022-11-17T09:30:33.936Z,13.85
2022-11-17T09:33:01.014Z,13.86
2022-11-17T09:35:27.823Z,13.87
2022-11-17T09:37:59.584Z,13.91
2022-11-17T09:40:26.384Z,13.95
2022-11-17T09:42:53.350Z,13.93
2022-11-17T09:45:31.891Z,13.94
2022-11-17T09:48:40.191Z,13.94
2022-11-17T10:38:21.020Z,14.11
2022-11-17T10:40:50.404Z,14.11
2022-11-17T10:43:27.724Z,14.14
2022-11-17T10:45:57.798Z,14.11
2022-11-17T10:49:20.626Z,14.11
2022-11-17T10:55:34.264Z,14.19
2022-11-17T10:58:24.831Z,14.28
2022-11-17T11:00:57.220Z,14.35
2022-11-17T11:03:33.826Z,14.41
2022-11-17T11:06:17.925Z,14.46
2022-11-17T11:08:55.803Z,14.58
2022-11-17T11:11:51.311Z,14.63
2022-11-17T11:14:27.353Z,14.69
2022-11-17T11:16:54.934Z,14.68
2022-11-17T11:19:21.951Z,14.70
2022-11-17T11:22:07.306Z,14.70
2022-11-17T11:24:37.062Z,14.66
2022-11-17T11:27:21.444Z,14.63
2022-11-17T11:30:17.836Z,14.55
2022-11-17T11:33:23.265Z,14.53
2022-11-17T11:35:53.141Z,14.45
2022-11-17T11:38:40.821Z,14.43
2022-11-17T11:41:39.819Z,14.41
2022-11-17T11:44:28.786Z,14.42
2022-11-17T11:47:02.041Z,14.40
2022-11-17T11:49:35.315Z,14.39
2022-11-17T11:52:04.838Z,14.35
2022-11-17T11:54:38.228Z,14.32
2022-11-17T11:57:11.668Z,14.31
2022-11-17T11:59:51.499Z,14.23
2022-11-17T12:06:42.736Z,14.22
2022-11-17T12:09:18.634Z,14.16
2022-11-17T12:12:15.718Z,14.14
2022-11-17T12:15:07.986Z,14.12
2022-11-17T12:17:34.922Z,14.09
2022-11-17T12:20:09.245Z,14.08
2022-11-17T12:22:37.522Z,14.08
2022-11-17T12:25:05.473Z,14.08
2022-11-17T12:27:32.794Z,14.06
2022-11-17T12:30:00.138Z,14.07
2022-11-17T12:32:45.094Z,14.04
2022-11-17T12:35:31.111Z,13.97
2022-11-17T12:38:16.658Z,13.94
2022-11-17T12:40:50.135Z,13.95
2022-11-17T12:43:16.973Z,13.89
2022-11-17T12:45:52.910Z,13.87
2022-11-17T12:48:34.703Z,13.81
2022-11-17T12:51:21.852Z,13.79
2022-11-17T12:53:51.535Z,13.77
2022-11-17T12:56:46.103Z,13.76
2022-11-17T12:59:34.395Z,13.76
2022-11-17T13:02:30.349Z,13.77
2022-11-17T13:05:11.395Z,13.73
2022-11-17T13:07:38.348Z,13.72
2022-11-17T13:10:05.732Z,13.76
2022-11-17T13:12:33.750Z,13.78
2022-11-17T13:15:05.319Z,13.79
2022-11-17T13:17:41.637Z,13.79
2022-11-17T13:20:27.159Z,13.81
2022-11-17T13:23:12.992Z,13.78
2022-11-17T13:25:39.949Z,13.79
2022-11-17T13:28:09.818Z,13.79
2022-11-17T13:30:36.926Z,13.75
2022-11-17T13:33:04.230Z,13.74
2022-11-17T13:35:36.046Z,13.70
2022-11-17T13:38:07.839Z,13.70
2022-11-17T13:40:36.008Z,13.65
2022-11-17T13:43:04.337Z,13.65
2022-11-17T13:45:31.320Z,13.62
2022-11-17T13:47:59.633Z,13.60
2022-11-17T13:50:26.913Z,13.61
2022-11-17T13:52:54.902Z,13.57
2022-11-17T13:55:22.937Z,13.57
2022-11-17T14:01:37.011Z,13.52
2022-11-17T14:04:24.965Z,13.55
2022-11-17T14:07:00.109Z,13.52
2022-11-17T14:09:29.002Z,13.50
2022-11-17T14:11:56.088Z,13.52
2022-11-17T14:14:37.063Z,13.55
2022-11-17T14:17:19.308Z,13.56
2022-11-17T14:19:46.686Z,13.57
2022-11-17T14:22:19.760Z,13.55
2022-11-17T14:24:51.028Z,13.51
2022-11-17T14:27:36.848Z,13.49
2022-11-17T14:30:05.221Z,13.42
2022-11-17T14:32:32.542Z,13.35
2022-11-17T14:34:59.361Z,13.28
2022-11-17T14:37:26.434Z,13.26
2022-11-17T14:39:53.368Z,13.15
2022-11-17T14:42:20.172Z,13.12
2022-11-17T14:44:47.040Z,13.08
2022-11-17T14:47:13.910Z,13.08
2022-11-17T14:49:40.710Z,13.08
2022-11-17T14:52:07.583Z,13.09
2022-11-17T14:54:34.494Z,13.08
2022-11-17T14:57:01.356Z,13.07
2022-11-17T14:59:28.445Z,13.04
2022-11-17T15:01:55.347Z,13.06
2022-11-17T15:04:49.004Z,13.06
2022-11-17T15:07:09.051Z,13.01
2022-11-17T15:09:35.893Z,13.04
2022-11-17T15:12:02.835Z,12.98
2022-11-17T15:14:29.682Z,13.01
2022-11-17T15:16:56.518Z,12.98
2022-11-17T15:19:23.342Z,12.98
2022-11-17T15:21:50.250Z,12.98
2022-11-17T15:24:17.346Z,13.02
2022-11-17T15:26:44.702Z,12.99
2022-11-17T15:29:15.599Z,12.97
2022-11-17T15:31:42.779Z,12.95
2022-11-17T15:34:17.114Z,12.93
2022-11-17T15:36:46.993Z,12.88
2022-11-17T15:39:14.780Z,12.95
2022-11-17T15:41:41.959Z,12.95
2022-11-17T15:44:08.879Z,12.93
2022-11-17T15:46:35.888Z,12.93
2022-11-17T15:49:02.691Z,12.96
2022-11-17T15:51:29.475Z,12.94
2022-11-17T15:53:58.606Z,12.92
2022-11-17T15:56:28.009Z,12.88
2022-11-17T15:58:57.597Z,12.86
2022-11-17T16:01:25.095Z,12.90
2022-11-17T16:03:52.821Z,12.92
2022-11-17T16:06:19.680Z,12.96
2022-11-17T16:08:46.559Z,12.93
2022-11-17T16:11:14.033Z,12.91
2022-11-17T16:13:40.931Z,12.91
2022-11-17T16:16:08.259Z,12.96
2022-11-17T16:18:35.699Z,12.96
2022-11-17T16:21:04.867Z,12.95
2022-11-17T16:23:37.719Z,12.98
2022-11-17T16:26:04.740Z,12.97
2022-11-17T16:28:31.602Z,12.95
2022-11-17T16:30:58.435Z,12.97
2022-11-17T16:33:26.250Z,12.92
2022-11-17T16:35:53.226Z,12.91
2022-11-17T16:38:20.184Z,12.92
2022-11-17T16:40:47.163Z,12.86
2022-11-17T16:43:14.010Z,12.84
2022-11-17T16:45:45.450Z,12.82
2022-11-17T16:48:12.859Z,12.79
2022-11-17T16:50:41.233Z,12.79
2022-11-17T16:53:08.144Z,12.75
2022-11-17T16:55:36.217Z,12.72
2022-11-17T16:58:04.566Z,12.57
2022-11-17T17:00:31.969Z,12.54
2022-11-17T17:02:58.948Z,12.50
2022-11-17T17:05:26.191Z,12.53
2022-11-17T17:07:53.013Z,12.54
2022-11-17T17:10:19.836Z,12.52
2022-11-17T17:12:46.719Z,12.51
2022-11-17T17:15:13.614Z,12.53
2022-11-17T17:17:40.423Z,12.54
2022-11-17T17:20:08.305Z,12.54
2022-11-17T17:22:35.152Z,12.49
2022-11-17T17:25:03.974Z,12.51
2022-11-17T17:27:31.539Z,12.43
2022-11-17T17:29:58.425Z,12.37
2022-11-17T17:32:25.363Z,12.33
2022-11-17T17:34:52.236Z,12.32
2022-11-17T17:37:19.073Z,12.34
2022-11-17T17:39:45.977Z,12.33
2022-11-17T17:42:13.575Z,12.33
2022-11-17T17:44:40.383Z,12.36
2022-11-17T17:47:07.269Z,12.31
2022-11-17T17:49:34.125Z,12.26
2022-11-17T17:52:01.383Z,12.30
2022-11-17T17:54:28.302Z,12.27
2022-11-17T17:56:57.333Z,12.24
2022-11-17T17:59:24.151Z,12.19
2022-11-17T18:01:51.646Z,12.17
2022-11-17T18:04:18.586Z,12.22
2022-11-17T18:06:48.262Z,12.25
2022-11-17T18:09:19.383Z,12.25
2022-11-17T18:11:50.092Z,12.27
2022-11-17T18:14:21.210Z,12.30
2022-11-17T18:16:48.119Z,12.24
2022-11-17T18:19:16.028Z,12.25
2022-11-17T18:21:43.965Z,12.23
2022-11-17T18:24:11.916Z,12.21
2022-11-17T18:26:41.128Z,12.22
2022-11-17T18:29:16.597Z,12.23
2022-11-17T18:31:46.807Z,12.23
2022-11-17T18:34:16.981Z,12.24
2022-11-17T18:36:43.838Z,12.25
2022-11-17T18:39:11.247Z,12.21
2022-11-17T18:41:38.174Z,12.18
2022-11-17T18:44:05.044Z,12.12
2022-11-17T18:46:32.771Z,12.19
2022-11-17T18:49:00.063Z,12.17
2022-11-17T18:51:29.850Z,12.15
2022-11-17T18:53:58.626Z,12.16
2022-11-17T18:56:27.348Z,12.20
2022-11-17T18:58:54.353Z,12.23
2022-11-17T19:01:23.466Z,12.24
2022-11-17T19:03:52.588Z,12.30
2022-11-17T19:06:21.368Z,12.31
2022-11-17T19:08:48.747Z,12.23
2022-11-17T19:11:17.257Z,12.22
2022-11-17T19:13:45.122Z,12.22
2022-11-17T19:16:17.744Z,12.18
2022-11-17T19:18:46.096Z,12.15
2022-11-17T19:21:18.528Z,12.14
2022-11-17T19:23:51.432Z,12.15
2022-11-17T19:26:24.631Z,12.11
2022-11-17T19:28:56.014Z,12.07
2022-11-17T19:31:23.520Z,12.11
2022-11-17T19:33:50.855Z,12.11
2022-11-17T19:36:22.789Z,12.12
2022-11-17T19:38:51.518Z,12.17
2022-11-17T19:41:36.519Z,12.12
2022-11-17T19:44:05.731Z,12.10
2022-11-17T19:46:32.991Z,12.09
2022-11-17T19:49:00.411Z,12.09
2022-11-17T19:51:29.536Z,12.02
2022-11-17T19:54:03.172Z,12.00
2022-11-17T19:56:30.218Z,11.97
2022-11-17T19:58:57.180Z,11.98
2022-11-17T20:01:28.606Z,12.07
2022-11-17T20:03:56.511Z,12.04
2022-11-17T20:06:27.426Z,12.04
2022-11-17T20:08:55.513Z,11.98
2022-11-17T20:11:24.570Z,11.97
2022-11-17T20:13:51.618Z,11.99
2022-11-17T20:16:20.541Z,12.02
2022-11-17T20:18:52.107Z,12.03
2022-11-17T20:21:18.981Z,12.04
2022-11-17T20:23:46.241Z,12.02
2022-11-17T20:26:18.060Z,11.98
2022-11-17T20:28:45.570Z,11.94
2022-11-17T20:31:19.438Z,11.93
2022-11-17T20:33:47.323Z,11.98
2022-11-17T20:36:23.746Z,12.02
2022-11-17T20:38:58.586Z,12.00
2022-11-17T20:41:25.707Z,11.99
2022-11-17T20:43:54.677Z,12.00
2022-11-17T20:46:22.505Z,11.97
2022-11-17T20:48:49.537Z,12.00
2022-11-17T20:51:18.889Z,11.98
2022-11-17T20:53:46.160Z,11.98
2022-11-17T20:56:14.538Z,11.93
2022-11-17T20:58:41.359Z,11.92
2022-11-17T21:01:14.868Z,11.96
2022-11-17T21:03:42.284Z,11.95
2022-11-17T21:06:09.405Z,11.96
2022-11-17T21:08:37.961Z,11.92
2022-11-17T21:11:07.090Z,11.92
2022-11-17T21:13:35.186Z,11.84
2022-11-17T21:16:10.794Z,11.92
2022-11-17T21:18:40.030Z,11.82
2022-11-17T21:21:09.599Z,11.86
2022-11-17T21:23:37.675Z,11.87
2022-11-17T21:26:06.958Z,11.89
2022-11-17T21:28:34.690Z,11.85
2022-11-17T21:31:05.793Z,11.89
2022-11-17T21:33:32.603Z,11.86
2022-11-17T21:36:13.131Z,11.93
2022-11-17T21:38:40.398Z,11.88
2022-11-17T21:41:18.861Z,11.94
2022-11-17T21:43:47.630Z,11.95
2022-11-17T21:46:25.082Z,11.94
2022-11-17T21:48:52.937Z,11.88
2022-11-17T21:51:22.203Z,11.90
2022-11-17T21:53:56.003Z,11.93
2022-11-17T21:56:26.394Z,11.91
2022-11-17T21:58:57.413Z,11.90
2022-11-17T22:01:24.878Z,11.93
2022-11-17T22:03:52.090Z,11.93
2022-11-17T22:06:21.771Z,11.93
2022-11-17T22:08:49.366Z,11.92
2022-11-17T22:11:36.527Z,11.91
2022-11-17T22:14:14.835Z,11.88
2022-11-17T22:16:43.975Z,11.88
2022-11-17T22:19:12.134Z,11.88
2022-11-17T22:21:39.676Z,11.89
2022-11-17T22:24:08.105Z,11.87
2022-11-17T22:26:38.668Z,11.85
2022-11-17T22:29:07.282Z,11.82
2022-11-17T22:31:34.190Z,11.81
2022-11-17T22:34:01.130Z,11.79
2022-11-17T22:36:27.918Z,11.76
2022-11-17T22:38:55.286Z,11.77
2022-11-17T22:41:23.015Z,11.80
2022-11-17T22:43:54.250Z,11.83
2022-11-17T22:46:22.699Z,11.84
2022-11-17T22:48:49.698Z,11.85
2022-11-17T22:51:35.347Z,11.84
2022-11-17T22:54:02.317Z,11.87
2022-11-17T22:56:29.186Z,11.89
2022-11-17T22:58:59.677Z,11.89
2022-11-17T23:01:26.990Z,11.89
2022-11-17T23:03:53.977Z,11.92
2022-11-17T23:06:23.017Z,11.93
2022-11-17T23:08:50.139Z,11.92
2022-11-17T23:14:09.598Z,11.95
2022-11-17T23:16:37.761Z,11.92
2022-11-17T23:19:05.383Z,11.93
2022-11-17T23:21:32.357Z,11.81
2022-11-17T23:23:59.196Z,11.84
2022-11-17T23:26:26.137Z,11.83
2022-11-17T23:28:52.956Z,11.82
2022-11-17T23:31:19.801Z,11.80
2022-11-17T23:33:47.479Z,11.78
2022-11-17T23:36:19.412Z,11.80
2022-11-17T23:38:47.217Z,11.85
2022-11-17T23:41:15.587Z,11.82
2022-11-17T23:43:42.501Z,11.80
2022-11-17T23:46:14.122Z,11.83
2022-11-17T23:48:41.795Z,11.88
2022-11-17T23:51:16.706Z,11.82
2022-11-17T23:53:43.657Z,11.85
2022-11-17T23:56:11.278Z,11.88
2022-11-17T23:58:38.385Z,11.90
